Flight Track Log - Related Links

Times and Time Zones

All times are in EDT time to prevent confusion due to time zone crossing. See the ACA831 flight status page for this flight to view local times or setup timezone preferences in your user account.

Time Position Orientation Groundspeed Altitude Reporting Facility
EDT Latitude Longitude Course Direction KTS MPH feet Rate Location/Type
Tue 04:16:13 PM 45.4680 -73.7280 199° South 150 173  Level FlightAware ADS-B
Tue 04:16:32 PM 45.4570 -73.7430 224° Southwest 150 173 1,300 3,429 Climbing FlightAware ADS-B
Tue 04:16:48 PM 45.4490 -73.7530 221° Southwest 157 181 2,000 2,500 Climbing FlightAware ADS-B
Tue 04:17:08 PM 45.4360 -73.7690 221° Southwest 194 223 2,800 2,634 Climbing FlightAware ADS-B
Tue 04:17:29 PM 45.4200 -73.7880 220° Southwest 223 257 3,800 3,064 Climbing FlightAware ADS-B
Tue 04:17:55 PM 45.3970 -73.8150 220° Southwest 255 293 5,200 3,652 Climbing FlightAware ADS-B
Tue 04:18:15 PM 45.3790 -73.8410 225° Southwest 268 308 6,600 4,000 Climbing FlightAware ADS-B
Tue 04:18:25 PM 45.3750 -73.8580 251° West 268 308 7,200 4,200 Climbing FlightAware ADS-B
Tue 04:18:35 PM 45.3730 -73.8760 261° West 269 310 8,000 4,629 Climbing FlightAware ADS-B
Tue 04:19:00 PM 45.3830 -73.9200 288° West 276 318 9,900 3,323 Climbing FlightAware ADS-B
Tue 04:19:40 PM 45.4070 -73.9900 296° West 327 376 11,600 3,086 Climbing FlightAware ADS-B
Tue 04:20:10 PM 45.4230 -74.0520 290° West 339 390 13,500 3,171 Climbing FlightAware ADS-B
Tue 04:20:50 PM 45.4250 -74.1370 272° West 360 414 15,300 2,526 Climbing FlightAware ADS-B
Tue 04:21:26 PM 45.4220 -74.2300 267° West 366 421 16,700 3,250 Climbing FlightAware ADS-B
Tue 04:22:02 PM 45.4200 -74.3170 268° West 366 421 19,200 3,417 Climbing FlightAware ADS-B
Tue 04:22:38 PM 45.4180 -74.4040 268° West 384 442 20,800 2,625 Climbing FlightAware ADS-B
Tue 04:23:06 PM 45.4090 -74.4760 260° West 402 463 22,000 2,743 Climbing FlightAware ADS-B
Tue 04:23:48 PM 45.3910 -74.5890 257° West 414 476 24,000 2,676 Climbing FlightAware ADS-B
Tue 04:24:20 PM 45.3760 -74.6730 256° West 422 486 25,300 2,559 Climbing FlightAware ADS-B
Tue 04:24:56 PM 45.3590 -74.7710 256° West 429 494 26,900 2,351 Climbing FlightAware ADS-B
Tue 04:25:34 PM 45.3410 -74.8750 256° West 440 506 28,200 2,400 Climbing FlightAware ADS-B
Tue 04:26:06 PM 45.3260 -74.9670 257° West 439 505 29,700 2,687 Climbing FlightAware ADS-B
Tue 04:26:41 PM 45.3100 -75.0610 256° West 438 504 31,200 2,282 Climbing FlightAware ADS-B
Tue 04:27:17 PM 45.2940 -75.1500 256° West 439 505 32,400 2,137 Climbing FlightAware ADS-B
Tue 04:27:54 PM 45.2760 -75.2530 256° West 435 501 33,800 1,433 Climbing FlightAware ADS-B
Tue 04:28:24 PM 45.2620 -75.3340 256° West 431 496 34,000 182 Climbing FlightAware ADS-B
Tue 04:29:00 PM 45.2440 -75.4390 256° West 426 490 34,000  Level FlightAware ADS-B
Tue 04:29:36 PM 45.2270 -75.5360 256° West 425 489 34,000  Level FlightAware ADS-B
Tue 04:30:13 PM 45.2090 -75.6360 256° West 425 489 34,000  Level FlightAware ADS-B
Tue 04:30:43 PM 45.1970 -75.7020 256° West 427 491 34,000  Level FlightAware ADS-B
Tue 04:31:13 PM 45.1820 -75.7850 256° West 428 493 34,000  Level FlightAware ADS-B
Tue 04:31:52 PM 45.1590 -75.9100 255° West 431 496 34,000  Level FlightAware ADS-B
Tue 04:32:41 PM 45.1380 -76.0240 255° West 430 495 34,000  Level FlightAware ADS-B
Tue 04:33:10 PM 45.1230 -76.1090 256° West 430 495 34,000  Level FlightAware ADS-B
Tue 04:33:49 PM 45.0990 -76.2240 254° West 435 501 34,000  Level FlightAware ADS-B
Tue 04:34:25 PM 45.0690 -76.3120 244° Southwest 439 505 34,000  Level FlightAware ADS-B
Tue 04:35:11 PM 45.0250 -76.4230 241° Southwest 439 505 34,000  Level FlightAware ADS-B
Tue 04:35:46 PM 44.9900 -76.5130 241° Southwest 435 501 34,000  Level FlightAware ADS-B
Tue 04:36:23 PM 44.9570 -76.5940 240° Southwest 436 502 34,000  Level FlightAware ADS-B
Tue 04:36:58 PM 44.9150 -76.6980 240° Southwest 438 504 34,000  Level FlightAware ADS-B
Tue 04:37:33 PM 44.8800 -76.7860 241° Southwest 437 503 34,000  Level FlightAware ADS-B
Tue 04:38:08 PM 44.8470 -76.8690 241° Southwest 436 502 34,000  Level FlightAware ADS-B
Tue 04:38:37 PM 44.8160 -76.9460 240° Southwest 436 502 34,000  Level FlightAware ADS-B
Tue 04:39:13 PM 44.7810 -77.0340 241° Southwest 435 501 34,000  Level FlightAware ADS-B
Tue 04:39:43 PM 44.7560 -77.0960 240° Southwest 434 499 34,000 -92 Level FlightAware ADS-B
Tue 04:40:18 PM 44.7160 -77.1930 240° Southwest 434 499 33,900 -1,103 Descending FlightAware ADS-B
Tue 04:41:10 PM 44.6690 -77.3080 240° Southwest 423 487 32,400 -1,835 Descending FlightAware ADS-B
Tue 04:41:43 PM 44.6370 -77.3870 240° Southwest 421 484 31,300 -2,031 Descending FlightAware ADS-B
Tue 04:42:15 PM 44.6050 -77.4660 240° Southwest 409 471 30,200 -1,890 Descending FlightAware ADS-B
Tue 04:42:56 PM 44.5680 -77.5570 240° Southwest 401 461 29,000 -1,840 Descending FlightAware ADS-B
Tue 04:43:30 PM 44.5350 -77.6360 240° Southwest 393 452 27,900 -1,865 Descending FlightAware ADS-B
Tue 04:44:10 PM 44.5000 -77.7200 240° Southwest 389 448 26,700 -1,948 Descending FlightAware ADS-B
Tue 04:44:47 PM 44.4620 -77.8130 240° Southwest 382 440 25,400 -1,948 Descending FlightAware ADS-B
Tue 04:45:27 PM 44.4290 -77.8930 240° Southwest 375 432 24,200 -1,765 Descending FlightAware ADS-B
Tue 04:46:12 PM 44.3910 -77.9830 239° Southwest 367 422 22,900 -1,737 Descending FlightAware ADS-B
Tue 04:46:43 PM 44.3650 -78.0460 240° Southwest 361 415 22,000 -1,727 Descending FlightAware ADS-B
Tue 04:47:18 PM 44.3340 -78.1190 239° Southwest 353 406 21,000 -1,714 Descending FlightAware ADS-B
Tue 04:47:53 PM 44.3060 -78.1860 240° Southwest 347 399 20,000 -1,714 Descending FlightAware ADS-B
Tue 04:48:28 PM 44.2780 -78.2520 239° Southwest 342 394 19,000 -1,350 Descending FlightAware ADS-B
Tue 04:49:13 PM 44.2430 -78.3330 239° Southwest 327 376 18,200 -1,275 Descending FlightAware ADS-B
Tue 04:49:48 PM 44.2180 -78.3990 242° Southwest 318 366 17,300 -1,520 Descending FlightAware ADS-B
Tue 04:50:28 PM 44.1940 -78.4690 244° Southwest 311 358 16,300 -1,600 Descending FlightAware ADS-B
Tue 04:51:03 PM 44.1720 -78.5350 245° Southwest 307 353 15,300 -1,520 Descending FlightAware ADS-B
Tue 04:51:43 PM 44.1490 -78.6050 245° Southwest 298 343 14,400 -1,500 Descending FlightAware ADS-B
Tue 04:52:23 PM 44.1260 -78.6760 246° West 296 341 13,300 -1,600 Descending FlightAware ADS-B
Tue 04:52:58 PM 44.1060 -78.7350 245° Southwest 293 337 12,400 -1,569 Descending FlightAware ADS-B
Tue 04:53:28 PM 44.0880 -78.7870 244° Southwest 290 334 11,600 -1,457 Descending FlightAware ADS-B
Tue 04:54:08 PM 44.0670 -78.8500 245° Southwest 288 331 10,700 -1,477 Descending FlightAware ADS-B
Tue 04:54:33 PM 44.0510 -78.8960 244° Southwest 285 328 10,000 -1,600 Descending FlightAware ADS-B
Tue 04:54:53 PM 44.0410 -78.9260 245° Southwest 285 328 9,500 -1,500 Descending FlightAware ADS-B
Tue 04:55:13 PM 44.0290 -78.9630 246° West 285 328 9,000 -1,364 Descending FlightAware ADS-B
Tue 04:55:37 PM 44.0160 -78.9990 243° Southwest 279 321 8,500 -1,231 Descending FlightAware ADS-B
Tue 04:55:52 PM 44.0070 -79.0270 246° West 272 313 8,200 -1,000 Descending FlightAware ADS-B
Tue 04:56:13 PM 43.9970 -79.0560 244° Southwest 265 305 7,900 -1,050 Descending FlightAware ADS-B
Tue 04:56:32 PM 43.9880 -79.0840 246° West 261 300 7,500 -1,231 Descending FlightAware ADS-B
Tue 04:56:52 PM 43.9780 -79.1130 244° Southwest 259 298 7,100 -1,317 Descending FlightAware ADS-B
Tue 04:57:13 PM 43.9680 -79.1430 245° Southwest 257 296 6,600 -1,800 Descending FlightAware ADS-B
Tue 04:57:32 PM 43.9550 -79.1790 243° Southwest 259 298 5,900 -1,600 Descending FlightAware ADS-B
Tue 04:57:58 PM 43.9420 -79.2160 244° Southwest 261 300 5,400 -1,043 Descending FlightAware ADS-B
Tue 04:58:18 PM 43.9320 -79.2460 245° Southwest 251 289 5,100 -750 Descending FlightAware ADS-B
Tue 04:58:38 PM 43.9220 -79.2750 244° Southwest 251 289 4,900 -514 Descending FlightAware ADS-B
Tue 04:58:53 PM 43.9150 -79.2970 246° West 250 288 4,800 -167 Descending FlightAware ADS-B
Tue 04:59:14 PM 43.9040 -79.3250 241° Southwest 248 285 4,800 240 Level FlightAware ADS-B
Tue 04:59:18 PM 43.9010 -79.3320 239° Southwest 249 287 4,900 250 Climbing FlightAware ADS-B
Tue 04:59:38 PM 43.8860 -79.3550 228° Southwest 246 283 4,900  Level FlightAware ADS-B
Tue 05:00:03 PM 43.8670 -79.3830 227° Southwest 219 252 4,900 -133 Level FlightAware ADS-B
Tue 05:00:23 PM 43.8540 -79.4020 227° Southwest 198 228 4,800 -450 Descending FlightAware ADS-B
Tue 05:00:43 PM 43.8420 -79.4190 226° Southwest 190 219 4,600 -933 Descending FlightAware ADS-B
Tue 05:01:08 PM 43.8270 -79.4410 227° Southwest 186 214 4,100 -1,050 Descending FlightAware ADS-B
Tue 05:01:23 PM 43.8180 -79.4540 226° Southwest 185 213 3,900 -1,050 Descending FlightAware ADS-B
Tue 05:01:48 PM 43.8040 -79.4760 229° Southwest 177 204 3,400 -1,050 Descending FlightAware ADS-B
Tue 05:02:03 PM 43.7950 -79.4880 224° Southwest 174 200 3,200 -857 Descending FlightAware ADS-B
Tue 05:02:23 PM 43.7850 -79.5030 227° Southwest 172 198 2,900 -900 Descending FlightAware ADS-B
Tue 05:02:43 PM 43.7740 -79.5190 226° Southwest 169 194 2,600 -900 Descending FlightAware ADS-B
Tue 05:03:03 PM 43.7630 -79.5360 228° Southwest 173 199 2,300 -800 Descending FlightAware ADS-B
Tue 05:03:28 PM 43.7490 -79.5550 224° Southwest 173 199 2,000 -857 Descending FlightAware ADS-B
Tue 05:03:38 PM 43.7440 -79.5630 229° Southwest 169 194 1,800 -1,029 Descending FlightAware ADS-B
Tue 05:04:03 PM 43.7300 -79.5830 226° Southwest 157 181 1,400 -800 Descending FlightAware ADS-B
Tue 05:04:23 PM 43.7210 -79.5960 226° Southwest 140 161 1,200 -750 Descending FlightAware ADS-B
Tue 05:04:43 PM 43.7120 -79.6090 226° Southwest 141 162 900 -750 Descending FlightAware ADS-B
Tue 05:05:03 PM 43.7030 -79.6220 226° Southwest 136 157 700 -514 Descending FlightAware ADS-B
Tue 05:05:18 PM 43.6980 -79.6290 225° Southwest 140 161 600 -140 Descending FlightAware ADS-B
Tue 05:05:46 PM 43.6870 -79.6450 226° Southwest 140 161 600  Level FlightAware ADS-B

Login

Don't have an account? Register now (free) for customized features, flight alerts, and more!